For More Information Regarding This Station Coogee Station

PLEASE NOTE: "Rain" is actually the sum of Fremantle rainfall plus their outdoor nursery irrigation, as the sensor is located in their outdoor Bonsai nursery. This value can be misleading as they irrigate according to need.

Station Historical Data
 
Daily Summary for April 23, 2014 Units:  Metric    English   Both
« Previous Day
Next Day »
Daily Weekly Monthly Yearly Custom
  Current: High: Low: Average:
Temperature: 15.7 °C 27.4 °C 10.7 °C 17.9 °C
Dew Point: 8.2 °C 14.6 °C 7.1 °C 9.8 °C
Humidity: 61% 83% 31% 62%
Wind Speed: 0km/h 24.5km/h 0km/h 3.4km/h
Wind Gust: 0km/h 24.5km/h - -
WindCalm - - SSW
Pressure: 1014.8 hPa 1018.8 hPa 1013.8 hPa -
Precipitation: 2.29 mm      
Historical Graphs
 
 
Tabular Data for April 23, 2014
Time Temperature Dew Point Pressure Wind Wind Speed Wind Gust Humidity Rainfall Rate (Hourly) solar Conditions
00:00 14.6 °C 9.6 °C 1018.8 hPa SW 2.1 km/h 4.3 km/h 72% 0 mm VWS V15.00 W/m2
00:05 14.6 °C 9.4 °C 1018.8 hPa West 4.7 km/h 4.7 km/h 71% 0 mm VWS V15.00 W/m2
00:10 14.6 °C 9.4 °C 1018.8 hPa West 4.7 km/h 4.7 km/h 71% 0 mm VWS V15.00 W/m2
00:15 14.7 °C 9.5 °C 1018.8 hPa NW 1.4 km/h 5 km/h 71% 0 mm VWS V15.00 W/m2
00:20 14.7 °C 9.5 °C 1018.8 hPa NW 4.3 km/h 4.3 km/h 71% 0 mm VWS V15.00 W/m2
00:25 14.7 °C 9.3 °C 1018.8 hPa South 4.3 km/h 4.3 km/h 70% 0 mm VWS V15.00 W/m2
00:30 14.6 °C 9.2 °C 1018.8 hPa West 1.8 km/h 4 km/h 70% 0 mm VWS V15.00 W/m2
00:35 14.5 °C 9.1 °C 1017.8 hPa SW 2.6 km/h 4 km/h 70% 0 mm VWS V15.00 W/m2
00:40 14.4 °C 9 °C 1017.8 hPa South 1.8 km/h 1.8 km/h 70% 0 mm VWS V15.00 W/m2
00:45 14.3 °C 8.9 °C 1017.8 hPa South 4.7 km/h 4.7 km/h 70% 0 mm VWS V15.00 W/m2
00:50 14.2 °C 9 °C 1017.8 hPa West 4.3 km/h 5 km/h 71% 0 mm VWS V15.00 W/m2
00:55 14.1 °C 8.9 °C 1017.8 hPa SW 2.6 km/h 4.7 km/h 71% 0 mm VWS V15.00 W/m2
01:00 14.1 °C 8.9 °C 1017.8 hPa SW 5 km/h 5 km/h 71% 0 mm VWS V15.00 W/m2
01:05 14 °C 8.8 °C 1017.8 hPa Calm     71% 0 mm VWS V15.00 W/m2
01:10 13.8 °C 8.6 °C 1017.8 hPa SW 2.1 km/h 2.1 km/h 71% 0 mm VWS V15.00 W/m2
01:15 13.6 °C 8.4 °C 1017.8 hPa Calm     71% 0 mm VWS V15.00 W/m2
01:20 13.6 °C 8.7 °C 1017.8 hPa South 2.1 km/h 2.6 km/h 72% 0 mm VWS V15.00 W/m2
01:25 13.7 °C 8.8 °C 1017.8 hPa South 4.7 km/h 6.1 km/h 72% 0 mm VWS V15.00 W/m2
01:30 13.7 °C 8.8 °C 1017.8 hPa Calm     72% 0 mm VWS V15.00 W/m2
01:35 13.6 °C 8.7 °C 1018.8 hPa NNW 5 km/h 5 km/h 72% 0 mm VWS V15.00 W/m2
01:40 13.6 °C 8.7 °C 1018.8 hPa West 1.8 km/h 1.8 km/h 72% 0 mm VWS V15.00 W/m2
01:45 13.5 °C 8.6 °C 1018.8 hPa Calm     72% 0 mm VWS V15.00 W/m2
01:50 13.5 °C 8.6 °C 1017.8 hPa Calm     72% 0 mm VWS V15.00 W/m2
01:55 13.4 °C 8.4 °C 1017.8 hPa South 2.6 km/h 4.3 km/h 72% 0 mm VWS V15.00 W/m2
02:00 13.4 °C 8.4 °C 1017.8 hPa Calm     72% 0 mm VWS V15.00 W/m2
02:05 13.3 °C 8.4 °C 1017.8 hPa Calm     72% 0 mm VWS V15.00 W/m2
02:10 13.3 °C 8.4 °C 1017.8 hPa Calm     72% 0 mm VWS V15.00 W/m2
02:15 13 °C 8.1 °C 1017.8 hPa SW 2.1 km/h 2.1 km/h 72% 0 mm VWS V15.00 W/m2
02:20 12.8 °C 8.1 °C 1018.8 hPa Calm     73% 0 mm VWS V15.00 W/m2
02:25 12.7 °C 8 °C 1018.8 hPa Calm     73% 0 mm VWS V15.00 W/m2
02:30 12.9 °C 8.4 °C 1018.8 hPa Calm     74% 0 mm VWS V15.00 W/m2
02:35 13.1 °C 8.6 °C 1017.8 hPa Calm     74% 0 mm VWS V15.00 W/m2
02:40 13.1 °C 8.4 °C 1017.8 hPa Calm     73% 0 mm VWS V15.00 W/m2
02:45 13 °C 8.3 °C 1017.8 hPa Calm     73% 0 mm VWS V15.00 W/m2
02:50 12.9 °C 8.2 °C 1017.8 hPa Calm     73% 0 mm VWS V15.00 W/m2
02:55 12.8 °C 8.1 °C 1017.8 hPa Calm     73% 0 mm VWS V15.00 W/m2
03:00 12.8 °C 8.1 °C 1017.8 hPa Calm   2.1 km/h 73% 0 mm VWS V15.00 W/m2
03:05 12.8 °C 8.1 °C 1018.8 hPa Calm     73% 0 mm VWS V15.00 W/m2
03:10 12.8 °C 8.3 °C 1018.8 hPa Calm     74% 0 mm VWS V15.00 W/m2
03:15 12.7 °C 8.2 °C 1018.8 hPa Calm   2.6 km/h 74% 0 mm VWS V15.00 W/m2
03:20 12.7 °C 8.2 °C 1017.8 hPa Calm     74% 0 mm VWS V15.00 W/m2
03:25 12.6 °C 8.1 °C 1017.8 hPa Calm     74% 0 mm VWS V15.00 W/m2
03:30 12.4 °C 7.7 °C 1017.8 hPa Calm     73% 0 mm VWS V15.00 W/m2
03:35 12.3 °C 7.8 °C 1017.8 hPa Calm     74% 0 mm VWS V15.00 W/m2
03:40 12.2 °C 7.7 °C 1017.8 hPa Calm     74% 0 mm VWS V15.00 W/m2
03:45 12.1 °C 7.6 °C 1017.8 hPa Calm     74% 0 mm VWS V15.00 W/m2
03:50 11.9 °C 7.6 °C 1017.8 hPa Calm     75% 0 mm VWS V15.00 W/m2
03:55 11.8 °C 7.5 °C 1017.8 hPa Calm     75% 0 mm VWS V15.00 W/m2
04:00 11.7 °C 7.4 °C 1017.8 hPa Calm     75% 0 mm VWS V15.00 W/m2
04:05 11.6 °C 7.3 °C 1017.8 hPa Calm     75% 0 mm VWS V15.00 W/m2
04:10 11.5 °C 7.4 °C 1017.8 hPa Calm     76% 0 mm VWS V15.00 W/m2
04:15 11.5 °C 7.4 °C 1017.8 hPa Calm     76% 0 mm VWS V15.00 W/m2
04:20 11.2 °C 7.1 °C 1017.8 hPa Calm     76% 0 mm VWS V15.00 W/m2
04:25 11.2 °C 7.1 °C 1017.8 hPa Calm     76% 0 mm VWS V15.00 W/m2
04:30 11.3 °C 7.4 °C 1017.8 hPa Calm     77% 0 mm VWS V15.00 W/m2
04:35 11.2 °C 7.3 °C 1017.8 hPa Calm     77% 0 mm VWS V15.00 W/m2
04:40 11.1 °C 7.4 °C 1017.8 hPa Calm     78% 0 mm VWS V15.00 W/m2
04:45 11.1 °C 7.4 °C 1017.8 hPa Calm     78% 0 mm VWS V15.00 W/m2
04:50 11 °C 7.3 °C 1017.8 hPa Calm     78% 0 mm VWS V15.00 W/m2
04:55 11.2 °C 7.7 °C 1017.8 hPa Calm     79% 0 mm VWS V15.00 W/m2
05:00 11.2 °C 7.7 °C 1017.8 hPa Calm     79% 0 mm VWS V15.00 W/m2
05:10 11 °C 7.5 °C 1017.8 hPa Calm     79% 0 mm VWS V15.00 W/m2
05:15 11.1 °C 7.8 °C 1017.8 hPa Calm     80% 0 mm VWS V15.00 W/m2
05:20 11.1 °C 7.6 °C 1018.8 hPa Calm     79% 0 mm VWS V15.00 W/m2
05:25 11.1 °C 7.6 °C 1018.8 hPa Calm     79% 0 mm VWS V15.00 W/m2
05:30 11.1 °C 7.6 °C 1018.8 hPa Calm     79% 0 mm VWS V15.00 W/m2
05:35 11 °C 7.5 °C 1017.8 hPa Calm     79% 0 mm VWS V15.00 W/m2
05:40 10.9 °C 7.6 °C 1017.8 hPa Calm     80% 0 mm VWS V15.00 W/m2
05:45 10.9 °C 7.6 °C 1017.8 hPa Calm     80% 0 mm VWS V15.00 W/m2
05:50 10.9 °C 7.6 °C 1017.8 hPa Calm     80% 0 mm VWS V15.00 W/m2
05:55 10.8 °C 7.5 °C 1017.8 hPa Calm     80% 0 mm VWS V15.00 W/m2
06:00 10.9 °C 7.8 °C 1017.8 hPa Calm     81% 0 mm VWS V15.00 W/m2
06:05 10.9 °C 7.8 °C 1017.8 hPa Calm     81% 0 mm VWS V15.00 W/m2
06:10 11 °C 7.7 °C 1017.8 hPa Calm     80% 0 mm VWS V15.00 W/m2
06:15 11 °C 7.7 °C 1017.8 hPa Calm     80% 0 mm VWS V15.00 W/m2
06:20 11 °C 7.7 °C 1018.8 hPa Calm     80% 0 mm VWS V15.00 W/m2
06:25 10.8 °C 7.7 °C 1018.8 hPa Calm     81% 0 mm VWS V15.00 W/m2
06:30 10.7 °C 7.6 °C 1018.8 hPa Calm     81% 0 mm VWS V15.00 W/m2
06:35 10.7 °C 7.6 °C 1017.8 hPa Calm     81% 0 mm VWS V15.00 W/m2
06:40 10.8 °C 7.7 °C 1017.8 hPa Calm   3.5 km/h 81% 0 mm VWS V15.00 W/m2
06:45 11 °C 7.9 °C 1017.8 hPa Calm     81% 0 mm VWS V15.00 W/m2
06:50 11.1 °C 7.9 °C 1017.8 hPa Calm     81% 0 mm VWS V15.00 W/m2
06:55 11.2 °C 8.1 °C 1017.8 hPa Calm     81% 0 mm VWS V15.00 W/m2
07:00 11.3 °C 8.2 °C 1017.8 hPa Calm     81% 0 mm VWS V15.00 W/m2
07:05 11.3 °C 8 °C 1017.8 hPa Calm     80% 0 mm VWS V15.00 W/m2
07:10 11.3 °C 8 °C 1017.8 hPa Calm     80% 0 mm VWS V15.00 W/m2
07:15 11.5 °C 8.2 °C 1017.8 hPa Calm     80% 0 mm VWS V15.00 W/m2
07:20 11.7 °C 8.4 °C 1018.8 hPa Calm     80% 0 mm VWS V15.00 W/m2
07:25 11.9 °C 8.6 °C 1018.8 hPa Calm     80% 0 mm VWS V15.00 W/m2
07:30 12.2 °C 8.7 °C 1018.8 hPa Calm     79% 0 mm VWS V15.00 W/m2
07:35 12.4 °C 8.7 °C 1018.8 hPa Calm     78% 0 mm VWS V15.00 W/m2
07:40 13.2 °C 9.3 °C 1018.8 hPa South 1.8 km/h 2.6 km/h 77% 0 mm VWS V15.00 W/m2
07:45 14.2 °C 9.8 °C 1018.8 hPa Calm     75% 0 mm VWS V15.00 W/m2
07:50 14.9 °C 10.1 °C 1018.8 hPa Calm   1.4 km/h 73% 0 mm VWS V15.00 W/m2
07:55 15.4 °C 10.2 °C 1018.8 hPa Calm     71% 0 mm VWS V15.00 W/m2
08:00 15.5 °C 10.1 °C 1018.8 hPa Calm     70% 0 mm VWS V15.00 W/m2
08:05 16.1 °C 10 °C 1018.8 hPa SE 4.7 km/h 4.7 km/h 67% 0 mm VWS V15.00 W/m2
08:10 16.8 °C 9.2 °C 1018.8 hPa Calm   1.8 km/h 61% 0 mm VWS V15.00 W/m2
08:15 16.8 °C 8.2 °C 1018.8 hPa South 3.2 km/h 4.7 km/h 57% 0 mm VWS V15.00 W/m2
08:20 17.2 °C 8.6 °C 1018.8 hPa SE 2.1 km/h 2.6 km/h 57% 0 mm VWS V15.00 W/m2
08:25 17.5 °C 8.9 °C 1018.8 hPa Calm     57% 0 mm VWS V15.00 W/m2
08:30 18.3 °C 8.8 °C 1018.8 hPa East 1.4 km/h 5 km/h 54% 0 mm VWS V15.00 W/m2
08:35 18.8 °C 8.4 °C 1017.8 hPa South 5.5 km/h 5.5 km/h 51% 0 mm VWS V15.00 W/m2
08:40 19.4 °C 8.4 °C 1017.8 hPa South 7.2 km/h 7.2 km/h 49% 0 mm VWS V15.00 W/m2
08:45 20.1 °C 8.8 °C 1017.8 hPa SE 2.1 km/h 2.1 km/h 48% 0 mm VWS V15.00 W/m2
08:50 19.8 °C 8.2 °C 1018.8 hPa East 1.4 km/h 6.4 km/h 47% 0 mm VWS V15.00 W/m2
08:55 19.4 °C 7.8 °C 1018.8 hPa SE 5 km/h 5 km/h 47% 0 mm VWS V15.00 W/m2
09:00 19.4 °C 8.1 °C 1018.8 hPa SE 2.6 km/h 4 km/h 48% 0 mm VWS V15.00 W/m2
09:05 19.5 °C 7.9 °C 1018.8 hPa South 6.4 km/h 7.9 km/h 47% 0 mm VWS V15.00 W/m2
09:10 19.3 °C 7.7 °C 1018.8 hPa South 5 km/h 8.7 km/h 47% 0 mm VWS V15.00 W/m2
09:20 19.5 °C 8.2 °C 1018.8 hPa South 4 km/h 4 km/h 48% 0 mm VWS V15.00 W/m2
09:25 19.5 °C 8.2 °C 1018.8 hPa South 6.4 km/h 6.4 km/h 48% 0 mm VWS V15.00 W/m2
09:30 19.5 °C 8.2 °C 1018.8 hPa SE 1.4 km/h 4 km/h 48% 0 mm VWS V15.00 W/m2
09:35 19.5 °C 8.2 °C 1018.8 hPa West 3.5 km/h 5.8 km/h 48% 0 mm VWS V15.00 W/m2
09:40 19.5 °C 8.2 °C 1018.8 hPa South 4 km/h 4.3 km/h 48% 0 mm VWS V15.00 W/m2
09:45 20 °C 8.1 °C 1018.8 hPa South 2.6 km/h 5 km/h 46% 0 mm VWS V15.00 W/m2
09:50 20.4 °C 8.4 °C 1018.8 hPa ESE 6.4 km/h 6.4 km/h 46% 0 mm VWS V15.00 W/m2
09:55 20.9 °C 8.9 °C 1018.8 hPa Calm   2.6 km/h 46% 0 mm VWS V15.00 W/m2
10:00 21.4 °C 9 °C 1018.8 hPa West 3.2 km/h 4 km/h 45% 0 mm VWS V15.00 W/m2
10:05 21.6 °C 8.8 °C 1017.8 hPa SE 8.7 km/h 11.6 km/h 44% 0 mm VWS V15.00 W/m2
10:10 22 °C 8.8 °C 1017.8 hPa NW 5.8 km/h 5.8 km/h 43% 0 mm VWS V15.00 W/m2
10:15 21.8 °C 8.7 °C 1017.8 hPa South 10.1 km/h 10.1 km/h 43% 0 mm VWS V15.00 W/m2
10:20 21.9 °C 8.8 °C 1017.8 hPa Calm   5.5 km/h 43% 0 mm VWS V15.00 W/m2
10:25 22.6 °C 9.1 °C 1017.8 hPa SE 6.9 km/h 8.7 km/h 42% 0 mm VWS V15.00 W/m2
10:30 22.7 °C 8.8 °C 1017.8 hPa South 9 km/h 9 km/h 41% 1.27 mm VWS V15.00 W/m2
10:35 23.2 °C 9.2 °C 1017.8 hPa West 3.5 km/h 9 km/h 41% 1.27 mm VWS V15.00 W/m2
10:40 23.9 °C 9.5 °C 1017.8 hPa South 6.1 km/h 9 km/h 40% 1.27 mm VWS V15.00 W/m2
10:45 24.3 °C 9.4 °C 1017.8 hPa South 5 km/h 9.3 km/h 39% 1.27 mm VWS V15.00 W/m2
10:50 24.5 °C 9.3 °C 1017.8 hPa South 9.3 km/h 9.3 km/h 38% 1.27 mm VWS V15.00 W/m2
10:55 24.7 °C 9.1 °C 1017.8 hPa South 5 km/h 6.4 km/h 37% 1.27 mm VWS V15.00 W/m2
11:00 25.5 °C 9.8 °C 1017.8 hPa West 1.8 km/h 4.3 km/h 37% 1.27 mm VWS V15.00 W/m2
11:05 25.9 °C 9.7 °C 1017.8 hPa West 4.7 km/h 5.8 km/h 36% 1.27 mm VWS V15.00 W/m2
11:10 25.8 °C 9.2 °C 1017.8 hPa West 6.1 km/h 6.9 km/h 35% 1.27 mm VWS V15.00 W/m2
11:15 25.6 °C 8.6 °C 1017.8 hPa SE 6.4 km/h 6.4 km/h 34% 1.27 mm VWS V15.00 W/m2
11:20 25.3 °C 8.8 °C 1016.8 hPa West 6.1 km/h 6.1 km/h 35% 1.27 mm VWS V15.00 W/m2
11:25 25 °C 8.1 °C 1016.8 hPa West 4 km/h 6.1 km/h 34% 1.27 mm VWS V15.00 W/m2
11:30 24.7 °C 8.2 °C 1016.8 hPa West 5.5 km/h 9.3 km/h 35% 1.27 mm VWS V15.00 W/m2
11:35 24.7 °C 8.2 °C 1016.8 hPa South 3.5 km/h 6.4 km/h 35% 0 mm VWS V15.00 W/m2
11:40 25.4 °C 8.4 °C 1016.8 hPa South 5.8 km/h 7.9 km/h 34% 0 mm VWS V15.00 W/m2
11:45 25.3 °C 8.8 °C 1016.8 hPa South 4.3 km/h 4.7 km/h 35% 0 mm VWS V15.00 W/m2
11:50 24.7 °C 8.2 °C 1016.8 hPa South 2.1 km/h 6.4 km/h 35% 0 mm VWS V15.00 W/m2
11:55 25.1 °C 8.6 °C 1016.8 hPa SE 5 km/h 9 km/h 35% 0 mm VWS V15.00 W/m2
12:00 25.4 °C 8.4 °C 1016.8 hPa West 4.7 km/h 7.2 km/h 34% 0 mm VWS V15.00 W/m2
12:05 25.6 °C 8.6 °C 1016.8 hPa West 9 km/h 9 km/h 34% 0 mm VWS V15.00 W/m2
12:10 26.3 °C 9.2 °C 1016.8 hPa West 1.4 km/h 2.6 km/h 34% 0 mm VWS V15.00 W/m2
12:15 26.3 °C 8.8 °C 1016.8 hPa SE 9.7 km/h 9.7 km/h 33% 0 mm VWS V15.00 W/m2
12:20 26.5 °C 8.9 °C 1017.8 hPa South 9.7 km/h 9.7 km/h 33% 0 mm VWS V15.00 W/m2
12:25 26.4 °C 8.8 °C 1017.8 hPa West 4 km/h 6.4 km/h 33% 0 mm VWS V15.00 W/m2
12:30 26.7 °C 9.1 °C 1017.8 hPa SE 6.1 km/h 6.4 km/h 33% 0 mm VWS V15.00 W/m2
12:35 26.5 °C 8.5 °C 1016.8 hPa South 6.4 km/h 6.4 km/h 32% 0 mm VWS V15.00 W/m2
12:40 26.8 °C 8.7 °C 1016.8 hPa SE 1.8 km/h 3.5 km/h 32% 0 mm VWS V15.00 W/m2
12:45 27 °C 8.9 °C 1016.8 hPa South 4.3 km/h 5.8 km/h 32% 0 mm VWS V15.00 W/m2
12:50 26.9 °C 8.8 °C 1016.8 hPa East 5.8 km/h 10.1 km/h 32% 0 mm VWS V15.00 W/m2
12:55 27 °C 8.4 °C 1016.8 hPa East 2.6 km/h 12.6 km/h 31% 0 mm VWS V15.00 W/m2
13:00 27.4 °C 8.8 °C 1016.8 hPa South 2.1 km/h 3.2 km/h 31% 0 mm VWS V15.00 W/m2
13:05 27.3 °C 8.7 °C 1015.8 hPa SE 3.2 km/h 10.5 km/h 31% 0 mm VWS V15.00 W/m2
13:10 27.2 °C 8.6 °C 1015.8 hPa SE 5 km/h 5.8 km/h 31% 0 mm VWS V15.00 W/m2
13:15 27.3 °C 8.7 °C 1015.8 hPa SE 9.7 km/h 9.7 km/h 31% 0 mm VWS V15.00 W/m2
13:20 26.7 °C 8.2 °C 1015.8 hPa SE 4.7 km/h 5.5 km/h 31% 0 mm VWS V15.00 W/m2
13:25 26.5 °C 8 °C 1014.8 hPa ESE 4.3 km/h 4.7 km/h 31% 0 mm VWS V15.00 W/m2
13:30 26.1 °C 9 °C 1014.8 hPa South 3.2 km/h 4.7 km/h 34% 0 mm VWS V15.00 W/m2
13:35 26.1 °C 9 °C 1014.8 hPa West 10.1 km/h 10.1 km/h 34% 0 mm VWS V15.00 W/m2
13:40 26.4 °C 9.7 °C 1013.8 hPa West 12.2 km/h 12.6 km/h 35% 0 mm VWS V15.00 W/m2
13:45 26 °C 9.4 °C 1013.8 hPa ESE 13.7 km/h 13.7 km/h 35% 0 mm VWS V15.00 W/m2
13:50 25.7 °C 9.5 °C 1013.8 hPa West 14.5 km/h 14.5 km/h 36% 0 mm VWS V15.00 W/m2
13:55 25.2 °C 9.5 °C 1014.8 hPa West 10.5 km/h 13.7 km/h 37% 0 mm VWS V15.00 W/m2
14:00 24.9 °C 10.4 °C 1014.8 hPa West 7.9 km/h 16.3 km/h 40% 0 mm VWS V15.00 W/m2
14:05 24.6 °C 10.1 °C 1014.8 hPa NW 17.2 km/h 17.2 km/h 40% 0 mm VWS V15.00 W/m2
14:10 24.3 °C 10.2 °C 1014.8 hPa West 12.6 km/h 16.3 km/h 41% 0 mm VWS V15.00 W/m2
14:15 24.4 °C 10.3 °C 1014.8 hPa NW 24.5 km/h 24.5 km/h 41% 0 mm VWS V15.00 W/m2
14:20 24.3 °C 10.2 °C 1014.8 hPa West 14.8 km/h 14.8 km/h 41% 0 mm VWS V15.00 W/m2
14:25 24.2 °C 10.1 °C 1014.8 hPa NW 9.7 km/h 18 km/h 41% 0 mm VWS V15.00 W/m2
14:30 24.2 °C 10.1 °C 1014.8 hPa NW 11.6 km/h 11.6 km/h 41% 0 mm VWS V15.00 W/m2
14:35 24.1 °C 10.7 °C 1014.8 hPa NW 6.4 km/h 14.5 km/h 43% 0 mm VWS V15.00 W/m2
14:40 24 °C 10.7 °C 1014.8 hPa West 10.1 km/h 10.1 km/h 43% 0 mm VWS V15.00 W/m2
14:45 23.6 °C 10.3 °C 1014.8 hPa West 15.8 km/h 16.6 km/h 43% 0 mm VWS V15.00 W/m2
14:50 23.6 °C 10.7 °C 1014.8 hPa South 17.2 km/h 17.2 km/h 44% 0 mm VWS V15.00 W/m2
14:55 23.3 °C 10.7 °C 1014.8 hPa West 7.9 km/h 9.3 km/h 45% 0 mm VWS V15.00 W/m2
15:00 23.5 °C 11.6 °C 1014.8 hPa South 11.9 km/h 11.9 km/h 47% 0 mm VWS V15.00 W/m2
15:05 23.7 °C 11.4 °C 1014.8 hPa SE 6.4 km/h 11.1 km/h 46% 0 mm VWS V15.00 W/m2
15:10 23.4 °C 11.4 °C 1014.8 hPa West 14 km/h 14 km/h 47% 0 mm VWS V15.00 W/m2
15:15 23.4 °C 11.4 °C 1014.8 hPa South 11.9 km/h 11.9 km/h 47% 0 mm VWS V15.00 W/m2
15:20 23.4 °C 11.8 °C 1014.8 hPa West 7.9 km/h 17.2 km/h 48% 0 mm VWS V15.00 W/m2
15:25 23.4 °C 12.1 °C 1014.8 hPa WNW 9.7 km/h 9.7 km/h 49% 0 mm VWS V15.00 W/m2
15:30 23.5 °C 12.2 °C 1014.8 hPa West 9.3 km/h 9.3 km/h 49% 0 mm VWS V15.00 W/m2
15:35 23.5 °C 12.5 °C 1014.8 hPa NW 13 km/h 16.6 km/h 50% 0 mm VWS V15.00 W/m2
15:40 23.6 °C 12.6 °C 1014.8 hPa East 5.8 km/h 5.8 km/h 50% 0 mm VWS V15.00 W/m2
15:45 23.4 °C 11.8 °C 1014.8 hPa West 6.9 km/h 15.4 km/h 48% 0 mm VWS V15.00 W/m2
15:50 23.5 °C 12.5 °C 1014.8 hPa West 14.5 km/h 14.5 km/h 50% 0 mm VWS V15.00 W/m2
15:55 23.4 °C 12.4 °C 1014.8 hPa West 15.4 km/h 15.4 km/h 50% 0 mm VWS V15.00 W/m2
16:00 22.9 °C 12.2 °C 1014.8 hPa West 9.3 km/h 9.3 km/h 51% 0 mm VWS V15.00 W/m2
16:05 22.8 °C 12.4 °C 1014.8 hPa West 8.7 km/h 8.7 km/h 52% 0 mm VWS V15.00 W/m2
16:10 22.7 °C 12.9 °C 1014.8 hPa West 9.7 km/h 10.5 km/h 54% 0 mm VWS V15.00 W/m2
16:15 22.3 °C 12.6 °C 1014.8 hPa West 5 km/h 12.2 km/h 54% 0 mm VWS V15.00 W/m2
16:20 22.2 °C 13.3 °C 1014.8 hPa East 10.1 km/h 10.1 km/h 57% 0 mm VWS V15.00 W/m2
16:25 22.2 °C 13.8 °C 1014.8 hPa West 9.7 km/h 10.1 km/h 59% 0 mm VWS V15.00 W/m2
16:30 21.9 °C 13.6 °C 1014.8 hPa South 5.8 km/h 10.5 km/h 59% 0 mm VWS V15.00 W/m2
16:35 21.7 °C 14.1 °C 1014.8 hPa West 16.3 km/h 16.3 km/h 62% 0 mm VWS V15.00 W/m2
16:40 21.5 °C 14.2 °C 1014.8 hPa SE 7.9 km/h 13.7 km/h 63% 0 mm VWS V15.00 W/m2
16:45 21.3 °C 14.2 °C 1014.8 hPa West 5.8 km/h 5.8 km/h 64% 0 mm VWS V15.00 W/m2
16:50 21.2 °C 14.1 °C 1013.8 hPa West 5.5 km/h 10.1 km/h 64% 0 mm VWS V15.00 W/m2
16:55 21.2 °C 14.1 °C 1013.8 hPa South 6.4 km/h 9.3 km/h 64% 0 mm VWS V15.00 W/m2
17:00 21.1 °C 14.1 °C 1013.8 hPa West 4.7 km/h 5 km/h 64% 0 mm VWS V15.00 W/m2
17:05 21 °C 14.2 °C 1014.8 hPa West 11.9 km/h 11.9 km/h 65% 0 mm VWS V15.00 W/m2
17:10 21 °C 14.2 °C 1014.8 hPa East 2.6 km/h 9 km/h 65% 0 mm VWS V15.00 W/m2
17:15 20.9 °C 14.1 °C 1014.8 hPa SW 9 km/h 9 km/h 65% 0 mm VWS V15.00 W/m2
17:20 20.8 °C 14 °C 1013.8 hPa SW 5.8 km/h 16.9 km/h 65% 0 mm VWS V15.00 W/m2
17:25 20.7 °C 13.9 °C 1013.8 hPa NW 6.4 km/h 9 km/h 65% 0 mm VWS V15.00 W/m2
17:30 20.6 °C 14.1 °C 1013.8 hPa West 7.6 km/h 7.6 km/h 66% 0 mm VWS V15.00 W/m2
17:35 20.5 °C 14.2 °C 1014.8 hPa South 4.7 km/h 6.9 km/h 67% 0 mm VWS V15.00 W/m2
17:40 20.3 °C 14 °C 1014.8 hPa West 6.1 km/h 6.1 km/h 67% 0 mm VWS V15.00 W/m2
17:45 20.2 °C 14.3 °C 1014.8 hPa East 7.6 km/h 9 km/h 69% 0 mm VWS V15.00 W/m2
17:50 20.1 °C 14.2 °C 1014.8 hPa South 2.1 km/h 4.7 km/h 69% 0 mm VWS V15.00 W/m2
17:55 20 °C 14.4 °C 1014.8 hPa SW 4.3 km/h 7.9 km/h 70% 0 mm VWS V15.00 W/m2
18:00 19.9 °C 14.3 °C 1014.8 hPa South 4 km/h 4 km/h 70% 0 mm VWS V15.00 W/m2
18:05 19.8 °C 14.4 °C 1014.8 hPa SE 3.5 km/h 6.1 km/h 71% 0 mm VWS V15.00 W/m2
18:10 19.7 °C 14.3 °C 1014.8 hPa West 4.3 km/h 4.3 km/h 71% 0 mm VWS V15.00 W/m2
18:15 19.6 °C 14.4 °C 1014.8 hPa South 2.1 km/h 2.6 km/h 72% 0 mm VWS V15.00 W/m2
18:20 19.5 °C 14.6 °C 1014.8 hPa South 2.6 km/h 2.6 km/h 73% 0 mm VWS V15.00 W/m2
18:25 19.4 °C 14.2 °C 1014.8 hPa Calm     72% 0 mm VWS V15.00 W/m2
18:30 19 °C 13.8 °C 1014.8 hPa Calm     72% 0 mm VWS V15.00 W/m2
18:35 18.6 °C 13.4 °C 1014.8 hPa Calm     72% 0 mm VWS V15.00 W/m2
18:40 18.3 °C 13.4 °C 1014.8 hPa Calm     73% 0 mm VWS V15.00 W/m2
18:45 17.9 °C 13.2 °C 1014.8 hPa Calm     74% 0 mm VWS V15.00 W/m2
18:50 17.5 °C 13 °C 1014.8 hPa Calm     75% 0 mm VWS V15.00 W/m2
18:55 17.2 °C 12.7 °C 1014.8 hPa Calm     75% 0 mm VWS V15.00 W/m2
19:00 17.1 °C 12.7 °C 1014.8 hPa Calm     75% 0 mm VWS V15.00 W/m2
19:05 17 °C 12.7 °C 1014.8 hPa Calm     76% 0 mm VWS V15.00 W/m2
19:10 16.8 °C 12.6 °C 1014.8 hPa Calm     76% 0 mm VWS V15.00 W/m2
19:15 16.5 °C 12.4 °C 1014.8 hPa Calm     77% 0 mm VWS V15.00 W/m2
19:20 16.3 °C 12.3 °C 1014.8 hPa Calm     77% 0 mm VWS V15.00 W/m2
19:25 16.2 °C 12.2 °C 1014.8 hPa Calm     77% 0 mm VWS V15.00 W/m2
19:30 16 °C 12.2 °C 1014.8 hPa Calm     78% 0 mm VWS V15.00 W/m2
19:35 15.9 °C 12.3 °C 1013.8 hPa Calm     79% 0 mm VWS V15.00 W/m2
19:40 16.1 °C 12.4 °C 1013.8 hPa Calm     79% 0 mm VWS V15.00 W/m2
19:45 16.1 °C 12.4 °C 1013.8 hPa Calm     79% 0 mm VWS V15.00 W/m2
19:50 16 °C 12.4 °C 1014.8 hPa Calm     79% 0 mm VWS V15.00 W/m2
19:55 15.9 °C 12.4 °C 1014.8 hPa Calm     80% 0 mm VWS V15.00 W/m2
20:00 15.6 °C 12.3 °C 1014.8 hPa Calm     81% 0 mm VWS V15.00 W/m2
20:05 15.6 °C 12.2 °C 1013.8 hPa Calm     80% 0 mm VWS V15.00 W/m2
20:10 15.5 °C 12.3 °C 1013.8 hPa Calm     81% 0 mm VWS V15.00 W/m2
20:15 15.4 °C 12.2 °C 1013.8 hPa Calm     81% 0 mm VWS V15.00 W/m2
20:20 15.3 °C 12.1 °C 1014.8 hPa Calm     81% 0 mm VWS V15.00 W/m2
20:25 15.3 °C 12.1 °C 1014.8 hPa Calm     81% 0 mm VWS V15.00 W/m2
20:30 15 °C 11.8 °C 1014.8 hPa Calm     81% 0 mm VWS V15.00 W/m2
20:35 14.9 °C 11.8 °C 1014.8 hPa Calm     82% 0 mm VWS V15.00 W/m2
20:40 14.8 °C 11.8 °C 1014.8 hPa Calm     82% 0 mm VWS V15.00 W/m2
20:45 14.5 °C 11.7 °C 1014.8 hPa Calm     83% 0 mm VWS V15.00 W/m2
20:50 14.5 °C 11.7 °C 1014.8 hPa Calm     83% 0 mm VWS V15.00 W/m2
20:55 14.4 °C 11.6 °C 1014.8 hPa Calm     83% 0 mm VWS V15.00 W/m2
21:00 14.4 °C 11.6 °C 1014.8 hPa Calm     83% 1.02 mm VWS V15.00 W/m2
21:05 14.5 °C 11.7 °C 1014.8 hPa Calm     83% 1.02 mm VWS V15.00 W/m2
21:10 14.8 °C 11.9 °C 1014.8 hPa Calm     83% 1.02 mm VWS V15.00 W/m2
21:15 15.2 °C 11.9 °C 1014.8 hPa Calm     81% 1.02 mm VWS V15.00 W/m2
21:20 15.6 °C 11.8 °C 1014.8 hPa South 1.8 km/h 1.8 km/h 78% 1.02 mm VWS V15.00 W/m2
21:25 16 °C 10.9 °C 1014.8 hPa Calm   1.8 km/h 72% 1.02 mm VWS V15.00 W/m2
21:30 16.3 °C 10.4 °C 1014.8 hPa SE 1.8 km/h 1.8 km/h 68% 1.02 mm VWS V15.00 W/m2
21:35 16.4 °C 10.3 °C 1014.8 hPa South 1.4 km/h 1.4 km/h 67% 1.02 mm VWS V15.00 W/m2
21:40 16.5 °C 9.9 °C 1014.8 hPa Calm     65% 1.02 mm VWS V15.00 W/m2
21:45 16.6 °C 9.8 °C 1014.8 hPa Calm     64% 1.02 mm VWS V15.00 W/m2
21:50 16.5 °C 9.2 °C 1014.8 hPa Calm     62% 1.02 mm VWS V15.00 W/m2
21:55 16.2 °C 8.9 °C 1014.8 hPa Calm     62% 1.02 mm VWS V15.00 W/m2
22:00 16 °C 8.5 °C 1014.8 hPa Calm     61% 1.02 mm VWS V15.00 W/m2
22:05 15.9 °C 8.6 °C 1014.8 hPa Calm     62% 0 mm VWS V15.00 W/m2
22:15 15.9 °C 8.4 °C 1014.8 hPa Calm     61% 0 mm VWS V15.00 W/m2
22:20 15.7 °C 8.2 °C 1014.8 hPa Calm     61% 0 mm VWS V15.00 W/m2
Compliments of Weather Underground